createdAt,value
2019-01-23T00:01:40.849Z,-0.80
2019-01-23T00:04:11.061Z,-0.80
2019-01-23T00:06:40.502Z,-0.80
2019-01-23T00:09:08.903Z,-0.80
2019-01-23T00:11:37.226Z,-0.70
2019-01-23T00:14:06.829Z,-0.70
2019-01-23T00:16:35.221Z,-0.70
2019-01-23T00:19:06.255Z,-0.70
2019-01-23T00:21:34.686Z,-0.70
2019-01-23T00:24:05.675Z,-0.70
2019-01-23T00:26:34.053Z,-0.70
2019-01-23T00:29:04.091Z,-0.70
2019-01-23T00:31:32.491Z,-0.70
2019-01-23T00:34:01.868Z,-0.70
2019-01-23T00:36:30.291Z,-0.70
2019-01-23T00:38:58.677Z,-0.70
2019-01-23T00:41:26.995Z,-0.70
2019-01-23T00:44:14.834Z,-0.70
2019-01-23T00:47:04.256Z,-0.80
2019-01-23T00:49:32.672Z,-0.70
2019-01-23T00:52:03.278Z,-0.70
2019-01-23T00:54:34.544Z,-0.80
2019-01-23T00:57:05.654Z,-0.80
2019-01-23T00:59:33.959Z,-0.80
2019-01-23T01:02:06.657Z,-0.80
2019-01-23T01:04:35.016Z,-0.80
2019-01-23T01:07:04.349Z,-0.90
2019-01-23T01:09:32.856Z,-0.90
2019-01-23T01:12:06.531Z,-0.90
2019-01-23T01:14:34.844Z,-0.90
2019-01-23T01:17:05.719Z,-0.90
2019-01-23T01:19:34.049Z,-0.90
2019-01-23T01:22:02.427Z,-0.90
2019-01-23T01:24:30.849Z,-1.00
2019-01-23T01:27:18.660Z,-1.00
2019-01-23T01:29:49.066Z,-1.00
2019-01-23T01:32:17.476Z,-1.10
2019-01-23T01:34:45.854Z,-1.10
2019-01-23T01:37:16.096Z,-1.10
2019-01-23T01:39:46.602Z,-1.10
2019-01-23T01:42:16.564Z,-1.10
2019-01-23T01:44:45.118Z,-1.10
2019-01-23T01:47:13.524Z,-1.10
2019-01-23T01:49:41.910Z,-1.20
2019-01-23T01:52:10.326Z,-1.10
2019-01-23T01:54:38.641Z,-1.10
2019-01-23T01:57:07.045Z,-1.10
2019-01-23T01:59:37.134Z,-1.20
2019-01-23T02:02:05.516Z,-1.20
2019-01-23T02:04:36.755Z,-1.30
2019-01-23T02:07:05.358Z,-1.30
2019-01-23T02:09:37.542Z,-1.40
2019-01-23T02:14:58.775Z,-1.40
2019-01-23T02:17:28.077Z,-1.50
2019-01-23T02:19:57.684Z,-1.40
2019-01-23T02:22:26.031Z,-1.50
2019-01-23T02:24:56.553Z,-1.50
2019-01-23T02:27:24.939Z,-1.50
2019-01-23T02:29:56.763Z,-1.60
2019-01-23T02:32:27.269Z,-1.60
2019-01-23T02:34:55.721Z,-1.60
2019-01-23T02:37:27.936Z,-1.70
2019-01-23T02:39:56.334Z,-1.70
2019-01-23T02:42:30.133Z,-1.80
2019-01-23T02:44:58.551Z,-1.80
2019-01-23T02:47:30.847Z,-1.80
2019-01-23T02:50:02.636Z,-1.80
2019-01-23T02:52:31.277Z,-1.80
2019-01-23T02:55:05.752Z,-1.80
2019-01-23T02:57:35.653Z,-1.80
2019-01-23T03:00:08.291Z,-1.80
2019-01-23T03:02:36.740Z,-1.80
2019-01-23T03:05:08.265Z,-1.80
2019-01-23T03:07:36.688Z,-1.80
2019-01-23T03:10:08.330Z,-1.80
2019-01-23T03:12:36.905Z,-1.90
2019-01-23T03:15:08.390Z,-1.90
2019-01-23T03:17:36.704Z,-1.90
2019-01-23T03:20:08.213Z,-1.90
2019-01-23T03:22:39.691Z,-1.90
2019-01-23T03:25:10.104Z,-1.90
2019-01-23T03:27:41.202Z,-1.90
2019-01-23T03:30:18.467Z,-1.90
2019-01-23T03:32:49.273Z,-1.80
2019-01-23T03:35:17.851Z,-1.80
2019-01-23T03:37:47.588Z,-1.90
2019-01-23T03:40:39.864Z,-1.90
2019-01-23T03:43:13.610Z,-1.90
2019-01-23T03:45:41.998Z,-1.90
2019-01-23T03:48:12.006Z,-1.80
2019-01-23T03:50:40.724Z,-1.90
2019-01-23T03:53:11.464Z,-1.90
2019-01-23T03:55:39.844Z,-1.90
2019-01-23T03:58:08.842Z,-1.90
2019-01-23T04:00:37.283Z,-2.00
2019-01-23T04:03:07.034Z,-2.10
2019-01-23T04:05:35.493Z,-2.10
2019-01-23T04:08:06.660Z,-2.20
2019-01-23T04:10:35.046Z,-2.20
2019-01-23T04:13:06.637Z,-2.20
2019-01-23T04:15:34.961Z,-2.30
2019-01-23T04:18:07.254Z,-2.30
2019-01-23T04:20:39.762Z,-2.30
2019-01-23T04:23:08.116Z,-2.40
2019-01-23T04:25:37.667Z,-2.40
2019-01-23T04:28:06.163Z,-2.40
2019-01-23T04:30:34.456Z,-2.40
2019-01-23T04:33:03.795Z,-2.40
2019-01-23T04:35:33.339Z,-2.40
2019-01-23T04:38:01.727Z,-2.40
2019-01-23T04:40:33.505Z,-2.50
2019-01-23T04:43:01.958Z,-2.50
2019-01-23T04:45:33.931Z,-2.50
2019-01-23T04:48:02.262Z,-2.60
2019-01-23T04:50:33.935Z,-2.60
2019-01-23T04:53:04.043Z,-2.60
2019-01-23T04:55:33.176Z,-2.70
2019-01-23T04:58:03.155Z,-2.70
2019-01-23T05:00:32.535Z,-2.70
2019-01-23T05:03:03.989Z,-2.80
2019-01-23T05:05:32.369Z,-2.90
2019-01-23T05:08:00.665Z,-2.90
2019-01-23T05:10:29.049Z,-2.90
2019-01-23T05:12:57.472Z,-3.00
2019-01-23T05:15:32.286Z,-3.10
2019-01-23T05:18:00.639Z,-3.10
2019-01-23T05:20:31.359Z,-3.10
2019-01-23T05:23:00.895Z,-3.10
2019-01-23T05:25:29.235Z,-3.20
2019-01-23T05:27:57.633Z,-3.20
2019-01-23T05:30:27.814Z,-3.30
2019-01-23T05:32:56.121Z,-3.20
2019-01-23T05:35:26.244Z,-3.30
2019-01-23T05:37:54.539Z,-3.30
2019-01-23T05:40:22.901Z,-3.30
2019-01-23T05:42:51.288Z,-3.30
2019-01-23T05:45:19.574Z,-3.30
2019-01-23T05:47:49.524Z,-3.30
2019-01-23T05:50:18.882Z,-3.30
2019-01-23T05:52:49.394Z,-3.40
2019-01-23T05:55:17.739Z,-3.40
2019-01-23T05:57:46.084Z,-3.40
2019-01-23T06:00:16.817Z,-3.50
2019-01-23T06:02:51.330Z,-3.50
2019-01-23T06:05:22.292Z,-3.50
2019-01-23T06:07:51.818Z,-3.60
2019-01-23T06:10:24.853Z,-3.60
2019-01-23T06:12:53.278Z,-3.60
2019-01-23T06:15:22.788Z,-3.60
2019-01-23T06:17:51.068Z,-3.60
2019-01-23T06:20:38.806Z,-3.60
2019-01-23T06:23:07.088Z,-3.70
2019-01-23T06:25:36.954Z,-3.60
2019-01-23T06:28:26.275Z,-3.50
2019-01-23T06:30:57.488Z,-3.50
2019-01-23T06:33:27.376Z,-3.40
2019-01-23T06:35:55.748Z,-3.40
2019-01-23T06:38:25.682Z,-3.40
2019-01-23T06:40:56.322Z,-3.30
2019-01-23T06:43:25.774Z,-3.30
2019-01-23T06:45:54.074Z,-3.30
2019-01-23T06:48:29.761Z,-3.20
2019-01-23T06:50:58.594Z,-3.30
2019-01-23T06:53:29.770Z,-3.20
2019-01-23T06:55:58.062Z,-3.30
2019-01-23T06:58:26.448Z,-3.20
2019-01-23T07:00:57.494Z,-3.30
2019-01-23T07:03:25.929Z,-3.30
2019-01-23T07:05:56.787Z,-3.30
2019-01-23T07:08:29.237Z,-3.30
2019-01-23T07:10:57.912Z,-3.30
2019-01-23T07:13:26.234Z,-3.30
2019-01-23T07:15:59.101Z,-3.30
2019-01-23T07:18:27.501Z,-3.30
2019-01-23T07:20:57.030Z,-3.30
2019-01-23T07:23:25.545Z,-3.30
2019-01-23T07:26:14.919Z,-3.30
2019-01-23T07:28:49.199Z,-3.30
2019-01-23T07:31:14.944Z,-3.30
2019-01-23T07:33:45.879Z,-3.30
2019-01-23T07:36:16.824Z,-3.30
2019-01-23T07:38:45.100Z,-3.30
2019-01-23T07:41:14.380Z,-3.20
2019-01-23T07:43:42.675Z,-3.30
2019-01-23T07:46:12.667Z,-3.30
2019-01-23T07:48:41.073Z,-3.30
2019-01-23T07:51:12.170Z,-3.30
2019-01-23T07:53:40.497Z,-3.30
2019-01-23T07:56:10.833Z,-3.20
2019-01-23T07:58:40.167Z,-3.20
2019-01-23T08:01:08.529Z,-3.20
2019-01-23T08:03:38.503Z,-3.10
2019-01-23T08:06:06.799Z,-3.10
2019-01-23T08:08:41.319Z,-3.00
2019-01-23T08:11:13.251Z,-3.00
2019-01-23T08:13:41.548Z,-3.00
2019-01-23T08:16:11.502Z,-3.00
2019-01-23T08:18:39.815Z,-3.00
2019-01-23T08:21:09.505Z,-2.90
2019-01-23T08:23:37.788Z,-2.90
2019-01-23T08:26:07.725Z,-2.90
2019-01-23T08:28:39.134Z,-2.80
2019-01-23T08:31:07.414Z,-2.80
2019-01-23T08:33:35.992Z,-2.80
2019-01-23T08:36:04.476Z,-2.70
2019-01-23T08:38:36.207Z,-2.60
2019-01-23T08:41:04.535Z,-2.60
2019-01-23T08:43:32.963Z,-2.50
2019-01-23T08:46:10.265Z,-2.40
2019-01-23T08:48:39.071Z,-2.30
2019-01-23T08:51:09.450Z,-2.20
2019-01-23T08:53:37.843Z,-2.00
2019-01-23T08:56:06.164Z,-1.90
2019-01-23T08:58:34.555Z,-1.80
2019-01-23T09:01:02.896Z,-1.70
2019-01-23T09:03:33.745Z,-1.70
2019-01-23T09:06:02.026Z,-1.70
2019-01-23T09:08:37.605Z,-1.70
2019-01-23T09:11:03.360Z,-1.70
2019-01-23T09:13:31.655Z,-1.70
2019-01-23T09:15:59.930Z,-1.70
2019-01-23T09:18:28.280Z,-1.60
2019-01-23T09:21:05.604Z,-1.50
2019-01-23T09:23:34.011Z,-1.50
2019-01-23T09:26:04.903Z,-1.50
2019-01-23T09:28:34.606Z,-1.40
2019-01-23T09:31:14.466Z,-1.40
2019-01-23T09:33:49.230Z,-1.40
2019-01-23T09:36:20.864Z,-1.30
2019-01-23T09:39:09.088Z,-1.30
2019-01-23T09:41:47.603Z,-1.30
2019-01-23T09:44:51.146Z,-1.20
2019-01-23T09:47:28.611Z,-1.20
2019-01-23T09:50:12.030Z,-1.10
2019-01-23T09:52:44.738Z,-0.90
2019-01-23T09:55:13.397Z,-0.80
2019-01-23T09:57:47.146Z,-0.70
2019-01-23T10:00:36.536Z,-0.50
2019-01-23T10:03:27.500Z,-0.50
2019-01-23T10:05:56.015Z,-0.30
2019-01-23T10:08:28.891Z,-0.10
2019-01-23T10:10:57.415Z,0.00
2019-01-23T10:13:25.871Z,0.10
2019-01-23T10:15:54.183Z,0.20
2019-01-23T10:18:23.513Z,0.30
2019-01-23T10:20:51.933Z,0.40
2019-01-23T10:23:24.611Z,0.40
2019-01-23T10:25:55.773Z,0.40
2019-01-23T10:28:29.988Z,0.50
2019-01-23T10:31:21.049Z,0.60
2019-01-23T10:33:50.415Z,0.60
2019-01-23T10:36:19.728Z,0.70
2019-01-23T10:38:48.113Z,0.70
2019-01-23T10:41:16.392Z,0.80
2019-01-23T10:43:45.066Z,0.80
2019-01-23T10:46:13.423Z,0.90
2019-01-23T10:48:43.135Z,1.10
2019-01-23T10:51:11.449Z,1.10
2019-01-23T10:53:42.901Z,1.30
2019-01-23T10:56:11.231Z,1.40
2019-01-23T10:58:41.213Z,1.50
2019-01-23T11:01:13.949Z,1.60
2019-01-23T11:03:43.173Z,1.70
2019-01-23T11:06:11.471Z,1.70
2019-01-23T11:08:39.851Z,1.70
2019-01-23T11:11:11.335Z,1.80
2019-01-23T11:13:39.760Z,1.80
2019-01-23T11:16:09.700Z,1.80
2019-01-23T11:18:38.089Z,1.80
2019-01-23T11:21:06.366Z,2.00
2019-01-23T11:23:34.679Z,2.10
2019-01-23T11:26:06.839Z,2.40
2019-01-23T11:28:35.341Z,2.60
2019-01-23T11:31:04.635Z,2.80
2019-01-23T11:33:32.926Z,2.90
2019-01-23T11:36:04.408Z,3.00
2019-01-23T11:38:32.712Z,3.10
2019-01-23T11:41:02.627Z,3.20
2019-01-23T11:43:30.917Z,3.20
2019-01-23T11:46:00.785Z,3.20
2019-01-23T11:48:29.129Z,3.30
2019-01-23T11:50:57.401Z,3.30
2019-01-23T11:53:39.264Z,3.40
2019-01-23T11:56:12.337Z,3.60
2019-01-23T11:58:41.864Z,3.70
2019-01-23T12:01:10.203Z,3.80
2019-01-23T12:03:43.755Z,3.90
2019-01-23T12:06:15.182Z,4.10
2019-01-23T12:08:45.062Z,4.20
2019-01-23T12:11:16.226Z,4.40
2019-01-23T12:13:44.500Z,4.50
2019-01-23T12:16:17.342Z,4.50
2019-01-23T12:18:47.080Z,4.60
2019-01-23T12:21:15.368Z,4.70
2019-01-23T12:23:45.107Z,4.70
2019-01-23T12:26:14.608Z,4.70
2019-01-23T12:28:43.022Z,4.80
2019-01-23T12:31:11.412Z,4.80
2019-01-23T12:33:39.712Z,4.80
2019-01-23T12:36:10.724Z,4.80
2019-01-23T12:38:39.048Z,4.60
2019-01-23T12:41:10.450Z,4.40
2019-01-23T12:43:38.828Z,4.20
2019-01-23T12:46:07.164Z,4.00
2019-01-23T12:48:35.460Z,3.80
2019-01-23T12:51:05.040Z,3.70
2019-01-23T12:53:34.581Z,3.50
2019-01-23T12:56:05.706Z,3.30
2019-01-23T12:58:38.016Z,3.20
2019-01-23T13:01:13.367Z,3.10
2019-01-23T13:03:41.868Z,3.10
2019-01-23T13:06:11.790Z,3.10
2019-01-23T13:08:40.224Z,3.10
2019-01-23T13:11:10.070Z,3.10
2019-01-23T13:13:41.025Z,3.20
2019-01-23T13:16:09.369Z,3.10
2019-01-23T13:18:37.727Z,3.10
2019-01-23T13:21:05.995Z,3.10
2019-01-23T13:23:34.671Z,3.10
2019-01-23T13:26:04.719Z,3.00
2019-01-23T13:28:34.787Z,2.90
2019-01-23T13:31:04.244Z,2.80
2019-01-23T13:33:37.252Z,2.90
2019-01-23T13:36:05.671Z,2.90
2019-01-23T13:38:36.319Z,2.90
2019-01-23T13:41:04.663Z,3.00
2019-01-23T13:43:35.685Z,2.90
2019-01-23T13:46:03.957Z,2.90
2019-01-23T13:48:34.943Z,2.90
2019-01-23T13:51:03.296Z,2.90
2019-01-23T13:53:31.567Z,2.90
2019-01-23T13:55:59.878Z,2.80
2019-01-23T13:58:29.791Z,2.80
2019-01-23T14:01:12.353Z,2.80
2019-01-23T14:03:29.179Z,2.70
2019-01-23T14:05:58.409Z,2.70
2019-01-23T14:08:28.464Z,2.70
2019-01-23T14:10:58.157Z,2.60
2019-01-23T14:13:26.609Z,2.60
2019-01-23T14:15:54.889Z,2.60
2019-01-23T14:18:23.236Z,2.50
2019-01-23T14:20:53.259Z,2.50
2019-01-23T14:23:21.617Z,2.50
2019-01-23T14:25:51.586Z,2.40
2019-01-23T14:28:21.526Z,2.40
2019-01-23T14:30:49.799Z,2.30
2019-01-23T14:33:22.255Z,2.30
2019-01-23T14:35:50.559Z,2.20
2019-01-23T14:38:20.471Z,2.20
2019-01-23T14:40:48.782Z,2.20
2019-01-23T14:43:18.487Z,2.10
2019-01-23T14:45:46.869Z,2.10
2019-01-23T14:48:16.835Z,2.00
2019-01-23T14:50:46.013Z,1.90
2019-01-23T14:53:17.099Z,1.80
2019-01-23T14:55:45.640Z,1.80
2019-01-23T14:58:13.967Z,1.80
2019-01-23T15:00:43.274Z,1.70
2019-01-23T15:03:12.880Z,1.70
2019-01-23T15:05:41.170Z,1.60
2019-01-23T15:08:11.184Z,1.60
2019-01-23T15:10:40.784Z,1.50
2019-01-23T15:13:09.166Z,1.50
2019-01-23T15:15:37.481Z,1.40
2019-01-23T15:18:05.763Z,1.40
2019-01-23T15:20:38.495Z,1.30
2019-01-23T15:23:06.968Z,1.20
2019-01-23T15:25:37.366Z,1.10
2019-01-23T15:28:05.648Z,1.10
2019-01-23T15:30:36.483Z,1.10
2019-01-23T15:33:05.033Z,1.00
2019-01-23T15:35:34.550Z,1.00
2019-01-23T15:38:04.659Z,1.00
2019-01-23T15:40:35.648Z,1.00
2019-01-23T15:43:06.999Z,1.00
2019-01-23T15:45:35.352Z,1.00
2019-01-23T15:48:06.361Z,1.00
2019-01-23T15:50:34.678Z,0.90
2019-01-23T15:53:06.886Z,0.90
2019-01-23T15:55:39.702Z,0.90
2019-01-23T15:58:08.005Z,0.90
2019-01-23T16:00:37.905Z,0.80
2019-01-23T16:03:06.202Z,0.80
2019-01-23T16:05:36.175Z,0.80
2019-01-23T16:08:04.510Z,0.80
2019-01-23T16:10:36.006Z,0.70
2019-01-23T16:13:04.312Z,0.70
2019-01-23T16:15:33.931Z,0.70
2019-01-23T16:18:02.352Z,0.70
2019-01-23T16:20:32.408Z,0.70
2019-01-23T16:23:00.888Z,0.60
2019-01-23T16:25:30.525Z,0.60
2019-01-23T16:27:58.848Z,0.60
2019-01-23T16:30:30.437Z,0.60
2019-01-23T16:33:05.899Z,0.60
2019-01-23T16:35:38.485Z,0.60
2019-01-23T16:38:04.482Z,0.60
2019-01-23T16:40:34.445Z,0.60
2019-01-23T16:43:05.565Z,0.60
2019-01-23T16:45:34.672Z,0.60
2019-01-23T16:48:02.958Z,0.60
2019-01-23T16:50:34.106Z,0.60
2019-01-23T16:53:05.235Z,0.50
2019-01-23T16:55:34.799Z,0.50
2019-01-23T16:58:03.163Z,0.50
2019-01-23T17:00:31.483Z,0.50
2019-01-23T17:05:50.781Z,0.60
2019-01-23T17:08:19.068Z,0.80
2019-01-23T17:10:50.181Z,0.90
2019-01-23T17:13:18.499Z,0.90
2019-01-23T17:15:46.812Z,0.80
2019-01-23T17:18:15.097Z,0.80
2019-01-23T17:20:44.390Z,0.80
2019-01-23T17:23:15.425Z,0.90
2019-01-23T17:25:43.744Z,0.90
2019-01-23T17:28:15.855Z,0.80
2019-01-23T17:30:47.710Z,0.70
2019-01-23T17:33:16.240Z,0.70
2019-01-23T17:35:45.927Z,0.60
2019-01-23T17:38:14.203Z,0.50
2019-01-23T17:40:45.057Z,0.50
2019-01-23T17:43:15.402Z,0.40
2019-01-23T17:45:43.985Z,0.40
2019-01-23T17:48:14.769Z,0.40
2019-01-23T17:50:43.323Z,0.30
2019-01-23T17:53:12.599Z,0.30
2019-01-23T17:55:40.962Z,0.30
2019-01-23T17:58:15.207Z,0.30
2019-01-23T18:00:51.410Z,0.30
2019-01-23T18:03:22.758Z,0.30
2019-01-23T18:05:51.406Z,0.20
2019-01-23T18:08:22.077Z,0.20
2019-01-23T18:10:50.405Z,0.10
2019-01-23T18:13:21.691Z,0.00
2019-01-23T18:15:49.976Z,0.00
2019-01-23T18:18:18.351Z,0.10
2019-01-23T18:20:46.635Z,0.10
2019-01-23T18:23:14.929Z,0.10
2019-01-23T18:25:44.196Z,0.10
2019-01-23T18:28:13.862Z,0.10
2019-01-23T18:30:56.738Z,0.00
2019-01-23T18:33:40.677Z,0.10
2019-01-23T18:36:30.444Z,0.00
2019-01-23T18:39:01.984Z,-0.10
2019-01-23T18:41:33.525Z,-0.20
2019-01-23T18:44:23.001Z,-0.20
2019-01-23T18:47:09.678Z,-0.30
2019-01-23T18:49:41.318Z,-0.30
2019-01-23T18:52:14.714Z,-0.30
2019-01-23T18:54:43.917Z,-0.40
2019-01-23T18:57:18.446Z,-0.40
2019-01-23T18:59:47.750Z,-0.40
2019-01-23T19:02:16.197Z,-0.40
2019-01-23T19:04:46.170Z,-0.40
2019-01-23T19:07:16.090Z,-0.40
2019-01-23T19:09:44.547Z,-0.50
2019-01-23T19:12:12.852Z,-0.40
2019-01-23T19:14:41.140Z,-0.40
2019-01-23T19:17:11.397Z,-0.40
2019-01-23T19:19:40.950Z,-0.40
2019-01-23T19:22:09.252Z,-0.40
2019-01-23T19:24:37.818Z,-0.50
2019-01-23T19:27:06.158Z,-0.50
2019-01-23T19:29:37.298Z,-0.50
2019-01-23T19:32:06.269Z,-0.50
2019-01-23T19:34:36.024Z,-0.40
2019-01-23T19:37:04.382Z,-0.50
2019-01-23T19:39:33.703Z,-0.50
2019-01-23T19:42:02.094Z,-0.50
2019-01-23T19:44:30.400Z,-0.50
2019-01-23T19:46:58.747Z,-0.50
2019-01-23T19:49:29.167Z,-0.50
2019-01-23T19:51:59.122Z,-0.60
2019-01-23T19:54:27.419Z,-0.60
2019-01-23T19:56:58.649Z,-0.60
2019-01-23T19:59:28.144Z,-0.60
2019-01-23T20:01:59.715Z,-0.70
2019-01-23T20:04:29.803Z,-0.70
2019-01-23T20:06:58.089Z,-0.70
2019-01-23T20:09:27.616Z,-0.70
2019-01-23T20:11:57.622Z,-0.70
2019-01-23T20:14:25.907Z,-0.70
2019-01-23T20:16:57.174Z,-0.70
2019-01-23T20:19:25.530Z,-0.70
2019-01-23T20:21:55.300Z,-0.70
2019-01-23T20:24:23.604Z,-0.70
2019-01-23T20:26:52.941Z,-0.70
2019-01-23T20:29:21.226Z,-0.70
2019-01-23T20:31:49.497Z,-0.70
2019-01-23T20:34:19.275Z,-0.70
2019-01-23T20:36:48.674Z,-0.70
2019-01-23T20:39:16.953Z,-0.70
2019-01-23T20:41:45.289Z,-0.70
2019-01-23T20:44:13.573Z,-0.80
2019-01-23T20:46:41.847Z,-0.80
2019-01-23T20:49:10.173Z,-0.80
2019-01-23T20:51:40.574Z,-0.80
2019-01-23T20:54:12.032Z,-0.80
2019-01-23T20:56:42.408Z,-0.80
2019-01-23T20:59:10.743Z,-0.80
2019-01-23T21:01:45.197Z,-0.90
2019-01-23T21:04:13.345Z,-0.90
2019-01-23T21:06:43.967Z,-0.80
2019-01-23T21:09:12.245Z,-0.90
2019-01-23T21:11:40.554Z,-0.90
2019-01-23T21:14:10.595Z,-0.90
2019-01-23T21:16:40.508Z,-0.90
2019-01-23T21:19:08.821Z,-0.80
2019-01-23T21:21:37.182Z,-0.90
2019-01-23T21:24:05.839Z,-0.90
2019-01-23T21:26:34.744Z,-0.90
2019-01-23T21:29:04.532Z,-0.80
2019-01-23T21:31:34.933Z,-0.80
2019-01-23T21:34:04.662Z,-0.80
2019-01-23T21:36:32.945Z,-0.80
2019-01-23T21:39:01.225Z,-0.80
2019-01-23T21:41:31.602Z,-0.90
2019-01-23T21:43:59.944Z,-0.90
2019-01-23T21:46:30.001Z,-0.90
2019-01-23T21:48:58.320Z,-0.90
2019-01-23T21:51:26.657Z,-0.90
2019-01-23T21:53:55.957Z,-0.90
2019-01-23T21:56:24.233Z,-1.00
2019-01-23T21:58:53.546Z,-1.00
2019-01-23T22:01:21.932Z,-1.00
2019-01-23T22:03:50.373Z,-1.00
2019-01-23T22:06:18.644Z,-1.00
2019-01-23T22:08:46.959Z,-1.00
2019-01-23T22:11:18.378Z,-1.00
2019-01-23T22:13:46.663Z,-1.00
2019-01-23T22:16:14.973Z,-1.00
2019-01-23T22:18:44.170Z,-1.00
2019-01-23T22:21:12.474Z,-1.10
2019-01-23T22:23:41.776Z,-1.10
2019-01-23T22:26:10.058Z,-1.10
2019-01-23T22:28:39.989Z,-1.10
2019-01-23T22:31:10.272Z,-1.10
2019-01-23T22:33:38.601Z,-1.10
2019-01-23T22:36:06.884Z,-1.10
2019-01-23T22:38:36.462Z,-1.10
2019-01-23T22:41:06.212Z,-1.10
2019-01-23T22:43:37.172Z,-1.10
2019-01-23T22:46:05.672Z,-1.20
2019-01-23T22:48:35.328Z,-1.10
2019-01-23T22:51:05.349Z,-1.20
2019-01-23T22:53:33.862Z,-1.20
2019-01-23T22:56:03.458Z,-1.20
2019-01-23T22:58:31.894Z,-1.20
2019-01-23T23:01:08.440Z,-1.20
2019-01-23T23:03:37.010Z,-1.20
2019-01-23T23:06:06.537Z,-1.20
2019-01-23T23:08:55.884Z,-1.20
2019-01-23T23:11:24.161Z,-1.20
2019-01-23T23:13:52.443Z,-1.20
2019-01-23T23:16:20.754Z,-1.20
2019-01-23T23:18:49.048Z,-1.20
2019-01-23T23:21:17.326Z,-1.30
2019-01-23T23:23:48.484Z,-1.30
2019-01-23T23:26:16.772Z,-1.20
2019-01-23T23:28:46.302Z,-1.30
2019-01-23T23:34:00.374Z,-1.30
2019-01-23T23:36:28.667Z,-1.30
2019-01-23T23:38:56.968Z,-1.30
2019-01-23T23:41:28.607Z,-1.30
2019-01-23T23:43:56.883Z,-1.20
2019-01-23T23:46:25.185Z,-1.20
2019-01-23T23:48:53.641Z,-1.20
2019-01-23T23:51:22.035Z,-1.30
2019-01-23T23:53:50.599Z,-1.30
2019-01-23T23:56:18.911Z,-1.30
2019-01-23T23:58:50.294Z,-1.20
